Accueil
METAR-TAF:

METAR-TAF

Aéroports :

Laupheim, Allemagne

latitude: 48-13N, longitude: 009-55E, altitude: 538 m

Observation

Le bulletin a été fait il y a 1 heure et 1 minutes, à 00:20 UTC
Vent 5 kt de ouest/sud-ouest
Température 2°C
Humidité 69%
Pression 1008 hPa
Visibilité 10 km ou plus
Quelques nuages à une hauteur de 13000 ft
Nuages fragmentés à une hauteur de 22000 ft

METAR: ETHL 170020Z 25005KT 9999 FEW130 BKN220 02/M03 Q1008 BLU+

Heure: 02:21 (01:21 UTC)

Prévision

Le bulletin a été fait il y a 5 heures et 4 minutes, à 20:17 UTC
Prévision valable du 16 à 21 UTC au 17 à 06 UTC
Vent 8 kt de sud-ouest
Visibilité: 2100 m
Quelques nuages à une hauteur de 12000 ft
Nuages fragmentés à une hauteur de 14000 ft
Nuages fragmentés à une hauteur de 30000 ft

TAF: ETHL 162017Z 1621/1706 22008KT 9999 NSW FEW120 BKN140 BKN300 CANCEL 2100

Observations et prévisions météorologiques de plus de 4000 aéroports (messages METAR et TAF).

Les stations disponibles sont représentées par des disques jaunes et rouges sur la carte.

Passer la souris dessus pour voir le nom de la station.

Cliquer dessus pour voir les observations et prévisions météorologiques.

Pour changer de carte: cliquez sur les boutons verts avec une croix noire pour zoomer, sur le bouton vert avec un tiret pour effectuer un zoom arrière, ou sur les flèches vertes pour les cartes adjacentes.


METAR-TAF: